• Join FlightAware (Why Join?)
  • Login
  • US Flag 
04:24AM EST


 

Airport Tracker/Info


-or-


 

Live Flight TrackerFlight Track Log ✈ AAL102 ✈ 09-May-2013 ✈ PHNL - KDFW

Flight Track Log - Related Links

Times and Time Zones

All times are in EDT time to prevent confusion due to time zone crossing. See the AAL102 flight status page for this flight to view local times or setup timezone preferences in your user account.

Time Position Orientation Groundspeed Altitude Reporting Facility
EDT Latitude Longitude Course Direction KTS MPH feet Rate Location/Type
03:40AM 21.3000 -157.8833 49° Northeast 190 219 1,000  Level Honolulu Center
03:41AM 21.2500 -157.8500 148° Southeast 240 276 3,100 2,340 Climbing Honolulu Center
03:42AM 21.2104 -157.5180 108° East  Level FlightAware Approximate
03:42AM 21.2167 -157.7833 118° Southeast 280 322 5,700  Level Honolulu Center
03:43AM 21.1806 -157.3836 100° East  Level FlightAware Approximate
03:43AM 21.2167 -157.7000 90° East 290 334 8,600  Level Honolulu Center
03:44AM 21.1538 -157.2485 105° East  Level FlightAware Approximate
03:44AM 21.2333 -157.6167 78° East 310 357 11,300  Level Honolulu Center
03:45AM 21.1595 -157.1214 49° Northeast  Level FlightAware Approximate
03:45AM 21.2833 -157.5167 62° Northeast 370 426 12,300  Level Honolulu Center
03:46AM 21.3500 -157.4167 54° Northeast 420 483 14,400 2,340 Climbing Honolulu Center
03:47AM 21.4167 -157.3167 54° Northeast 420 483 17,000 2,400 Climbing Honolulu Center
03:48AM 21.4833 -157.2000 58° Northeast 440 506 19,300 2,100 Climbing Honolulu Center
03:49AM 21.5500 -157.0833 58° Northeast 450 518 21,300 1,980 Climbing Honolulu Center
03:50AM 21.6167 -156.9667 58° Northeast 450 518 23,300 1,920 Climbing Honolulu Center
03:51AM 21.6833 -156.8500 58° Northeast 460 529 25,200 1,800 Climbing Honolulu Center
03:52AM 21.7500 -156.7500 54° Northeast 470 541 27,000 1,800 Climbing Honolulu Center
03:53AM 21.8333 -156.6167 56° Northeast 480 552 28,900 1,980 Climbing Honolulu Center
03:54AM 21.9000 -156.5000 58° Northeast 480 552 31,000 1,980 Climbing Honolulu Center
03:55AM 21.9667 -156.3833 58° Northeast 470 541 32,900 1,740 Climbing Honolulu Center
03:56AM 22.0333 -156.2667 58° Northeast 460 529 34,500 1,020 Climbing Honolulu Center
03:57AM 22.1000 -156.1500 58° Northeast 460 529 35,000 240 Climbing Honolulu Center
03:58AM 22.1833 -156.0333 52° Northeast 460 529 35,000  Level Honolulu Center
03:59AM 22.2500 -155.9167 58° Northeast 460 529 35,000  Level Honolulu Center
04:00AM 22.3167 -155.8000 58° Northeast 460 529 35,000  Level Honolulu Center
04:01AM 22.3833 -155.6833 58° Northeast 450 518 35,000  Level Honolulu Center
04:02AM 22.4500 -155.5667 58° Northeast 460 529 35,000  Level Honolulu Center
04:03AM 22.5167 -155.4500 58° Northeast 460 529 35,000  Level Honolulu Center
04:04AM 22.5833 -155.3333 58° Northeast 460 529 35,000  Level Honolulu Center
04:05AM 22.6667 -155.2167 52° Northeast 460 529 35,000  Level Honolulu Center
04:06AM 22.7333 -155.1000 58° Northeast 460 529 35,000  Level Honolulu Center
04:07AM 22.8000 -154.9833 58° Northeast 460 529 35,000  Level Honolulu Center
04:08AM 22.8667 -154.8667 58° Northeast 460 529 35,000  Level Honolulu Center
04:09AM 22.9333 -154.7500 58° Northeast 460 529 35,000  Level Honolulu Center
04:10AM 23.0000 -154.6333 58° Northeast 470 541 35,000  Level Honolulu Center
04:12AM 23.1348 -154.4110 57° Northeast  Level FlightAware Approximate
04:19AM 23.6329 -153.5805 57° Northeast  Level FlightAware Approximate
04:20AM 23.7037 -153.4613 57° Northeast  Level FlightAware Approximate
04:21AM 23.7742 -153.3424 42° Northeast  Level FlightAware Approximate
04:21AM 23.7833 -153.3667 57° Northeast 480 552 35,000  Level Oakland Oceanic (ODAPS)
04:22AM 23.8479 -153.2257 57° Northeast  Level FlightAware Approximate
04:23AM 23.9192 -153.1067 57° Northeast  Level FlightAware Approximate
04:24AM 23.9904 -152.9876 57° Northeast  Level FlightAware Approximate
04:25AM 24.0615 -152.8683 57° Northeast  Level FlightAware Approximate
04:26AM 24.1325 -152.7489 57° Northeast  Level FlightAware Approximate
04:27AM 24.2915 -152.5094 57° Northeast 480 552 35,000  Level FlightAware Transoceanic
04:28AM 24.3637 -152.3864 57° Northeast 480 552 35,000  Level FlightAware Transoceanic
04:29AM 24.4358 -152.2632 57° Northeast 480 552 35,000  Level FlightAware Transoceanic
04:30AM 24.5078 -152.1399 57° Northeast 480 552 35,000  Level FlightAware Transoceanic
04:31AM 24.5797 -152.0165 57° Northeast 480 552 35,000  Level FlightAware Transoceanic
04:32AM 24.6516 -151.8929 57° Northeast 480 552 35,000  Level FlightAware Transoceanic
04:33AM 24.7232 -151.7691 57° Northeast 480 552 35,000  Level FlightAware Transoceanic
04:34AM 24.7948 -151.6453 58° Northeast 480 552 35,000  Level FlightAware Transoceanic
04:35AM 24.8664 -151.5213 58° Northeast 480 552 35,000  Level FlightAware Transoceanic
04:36AM 24.9377 -151.3971 58° Northeast 480 552 35,000  Level FlightAware Transoceanic
04:37AM 25.0090 -151.2728 58° Northeast 480 552 35,000  Level FlightAware Transoceanic
04:38AM 25.0802 -151.1483 58° Northeast 480 552 35,000  Level FlightAware Transoceanic
04:39AM 25.1513 -151.0238 58° Northeast 480 552 35,000  Level FlightAware Transoceanic
04:40AM 25.2223 -150.8990 58° Northeast 480 552 35,000  Level FlightAware Transoceanic
04:41AM 25.2932 -150.7741 58° Northeast 480 552 35,000  Level FlightAware Transoceanic
04:42AM 25.3640 -150.6491 58° Northeast 480 552 35,000  Level FlightAware Transoceanic
04:43AM 25.4346 -150.5239 58° Northeast 480 552 35,000  Level FlightAware Transoceanic
04:44AM 25.5052 -150.3986 58° Northeast 480 552 35,000  Level FlightAware Transoceanic
04:45AM 25.5756 -150.2731 58° Northeast 480 552 35,000  Level FlightAware Transoceanic
04:46AM 25.6460 -150.1475 58° Northeast 480 552 35,000  Level FlightAware Transoceanic
04:47AM 25.7162 -150.0218 58° Northeast 480 552 35,000  Level FlightAware Transoceanic
04:48AM 25.7864 -149.8958 58° Northeast 480 552 35,000  Level FlightAware Transoceanic
04:49AM 25.8564 -149.7698 58° Northeast 480 552 35,000  Level FlightAware Transoceanic
04:50AM 25.9263 -149.6436 58° Northeast 480 552 35,000  Level FlightAware Transoceanic
04:51AM 25.9961 -149.5172 58° Northeast 480 552 35,000  Level FlightAware Transoceanic
04:52AM 26.0658 -149.3907 59° Northeast 480 552 35,000  Level FlightAware Transoceanic
04:53AM 26.1354 -149.2640 59° Northeast 480 552 35,000  Level FlightAware Transoceanic
04:54AM 26.2049 -149.1372 59° Northeast 480 552 35,000  Level FlightAware Transoceanic
04:55AM 26.2742 -149.0103 59° Northeast 480 552 35,000  Level FlightAware Transoceanic
04:56AM 26.3435 -148.8831 59° Northeast 480 552 35,000  Level FlightAware Transoceanic
04:57AM 26.4126 -148.7559 59° Northeast 480 552 35,000  Level FlightAware Transoceanic
04:58AM 26.4816 -148.6285 59° Northeast 480 552 35,000  Level FlightAware Transoceanic
04:59AM 26.5505 -148.5009 59° Northeast 480 552 35,000  Level FlightAware Transoceanic
05:00AM 26.6193 -148.3732 59° Northeast 480 552 35,000  Level FlightAware Transoceanic
05:01AM 26.6880 -148.2453 59° Northeast 480 552 35,000  Level FlightAware Transoceanic
05:02AM 26.7566 -148.1172 59° Northeast 480 552 35,000  Level FlightAware Transoceanic
05:03AM 26.8251 -147.9891 59° Northeast 480 552 35,000  Level FlightAware Transoceanic
05:04AM 26.8934 -147.8607 59° Northeast 480 552 35,000  Level FlightAware Transoceanic
05:05AM 26.9616 -147.7322 59° Northeast 480 552 35,000  Level FlightAware Transoceanic
05:06AM 27.0297 -147.6036 59° Northeast 480 552 35,000  Level FlightAware Transoceanic
05:07AM 27.0977 -147.4748 59° Northeast 480 552 35,000  Level FlightAware Transoceanic
05:08AM 27.1656 -147.3458 59° Northeast 480 552 35,000  Level FlightAware Transoceanic
05:09AM 27.2333 -147.2167 64° Northeast 480 552 35,000  Level FlightAware Transoceanic
05:10AM 27.2946 -147.0749 64° Northeast 480 552 35,000  Level FlightAware Transoceanic
05:10AM 27.2333 -147.2167 64° Northeast 516 594 35,000  Level Oakland Oceanic (ODAPS)
05:11AM 27.3557 -146.9330 64° Northeast 480 552 35,000  Level FlightAware Transoceanic
05:12AM 27.4167 -146.7910 64° Northeast 480 552 35,000  Level FlightAware Transoceanic
05:13AM 27.4776 -146.6488 64° Northeast 480 552 35,000  Level FlightAware Transoceanic
05:14AM 27.5383 -146.5064 64° Northeast 480 552 35,000  Level FlightAware Transoceanic
05:15AM 27.5988 -146.3639 64° Northeast 480 552 35,000  Level FlightAware Transoceanic
05:16AM 27.6684 -146.1995 64° Northeast 516 594 35,000  Level FlightAware Transoceanic
05:17AM 27.7300 -146.0535 65° Northeast 516 594 35,000  Level FlightAware Transoceanic
05:18AM 27.7914 -145.9074 65° Northeast 516 594 35,000  Level FlightAware Transoceanic
05:19AM 27.8526 -145.7611 65° Northeast 516 594 35,000  Level FlightAware Transoceanic
05:20AM 27.9137 -145.6147 65° Northeast 516 594 35,000  Level FlightAware Transoceanic
05:21AM 27.9746 -145.4680 65° Northeast 516 594 35,000  Level FlightAware Transoceanic
05:22AM 28.0354 -145.3212 65° Northeast 516 594 35,000  Level FlightAware Transoceanic
05:23AM 28.0960 -145.1743 65° Northeast 516 594 35,000  Level FlightAware Transoceanic
05:24AM 28.1565 -145.0272 65° Northeast 516 594 35,000  Level FlightAware Transoceanic
05:25AM 28.2168 -144.8799 65° Northeast 516 594 35,000  Level FlightAware Transoceanic
05:26AM 28.2770 -144.7324 65° Northeast 516 594 35,000  Level FlightAware Transoceanic
05:27AM 28.3370 -144.5848 65° Northeast 516 594 35,000  Level FlightAware Transoceanic
05:28AM 28.3968 -144.4370 65° Northeast 516 594 35,000  Level FlightAware Transoceanic
05:29AM 28.4565 -144.2891 65° Northeast 516 594 35,000  Level FlightAware Transoceanic
05:30AM 28.5160 -144.1409 65° Northeast 516 594 35,000  Level FlightAware Transoceanic
05:31AM 28.5753 -143.9927 66° East 516 594 35,000  Level FlightAware Transoceanic
05:32AM 28.6345 -143.8442 66° East 516 594 35,000  Level FlightAware Transoceanic
05:33AM 28.6935 -143.6956 66° East 516 594 35,000  Level FlightAware Transoceanic
05:34AM 28.7524 -143.5468 66° East 516 594 35,000  Level FlightAware Transoceanic
05:35AM 28.8111 -143.3978 66° East 516 594 35,000  Level FlightAware Transoceanic
05:36AM 28.8696 -143.2487 66° East 516 594 35,000  Level FlightAware Transoceanic
05:37AM 28.9280 -143.0994 66° East 516 594 35,000  Level FlightAware Transoceanic
05:38AM 28.9862 -142.9500 66° East 516 594 35,000  Level FlightAware Transoceanic
05:39AM 29.0443 -142.8003 66° East 516 594 35,000  Level FlightAware Transoceanic
05:40AM 29.1021 -142.6505 66° East 516 594 35,000  Level FlightAware Transoceanic
05:41AM 29.1599 -142.5006 66° East 516 594 35,000  Level FlightAware Transoceanic
05:42AM 29.2174 -142.3504 66° East 516 594 35,000  Level FlightAware Transoceanic
05:43AM 29.2748 -142.2001 66° East 516 594 35,000  Level FlightAware Transoceanic
05:44AM 29.3320 -142.0497 66° East 516 594 35,000  Level FlightAware Transoceanic
05:45AM 29.3890 -141.8990 67° East 516 594 35,000  Level FlightAware Transoceanic
05:46AM 29.4459 -141.7482 67° East 516 594 35,000  Level FlightAware Transoceanic
05:47AM 29.5026 -141.5972 67° East 516 594 35,000  Level FlightAware Transoceanic
05:48AM 29.5591 -141.4461 67° East 516 594 35,000  Level FlightAware Transoceanic
05:49AM 29.6155 -141.2948 67° East 516 594 35,000  Level FlightAware Transoceanic
05:50AM 29.6717 -141.1433 67° East 516 594 35,000  Level FlightAware Transoceanic
05:51AM 29.7277 -140.9916 67° East 516 594 35,000  Level FlightAware Transoceanic
05:52AM 29.7835 -140.8398 67° East 516 594 35,000  Level FlightAware Transoceanic
05:53AM 29.8392 -140.6878 67° East 516 594 35,000  Level FlightAware Transoceanic
05:54AM 29.8947 -140.5357 67° East 516 594 35,000  Level FlightAware Transoceanic
05:55AM 29.9500 -140.3833 69° East 516 594 35,000  Level FlightAware Transoceanic
05:56AM 29.9995 -140.2328 69° East 516 594 35,000  Level FlightAware Transoceanic
05:56AM 29.9500 -140.3833 69° East 503 579 35,000  Level Oakland Oceanic (ODAPS)
05:57AM 30.0489 -140.0821 69° East 516 594 35,000  Level FlightAware Transoceanic
05:58AM 30.0981 -139.9313 69° East 516 594 35,000  Level FlightAware Transoceanic
05:59AM 30.1471 -139.7803 69° East 516 594 35,000  Level FlightAware Transoceanic
06:00AM 30.1960 -139.6292 70° East 516 594 35,000  Level FlightAware Transoceanic
06:01AM 30.2447 -139.4779 70° East 516 594 35,000  Level FlightAware Transoceanic
06:02AM 30.2932 -139.3265 70° East 503 579 35,000  Level FlightAware Transoceanic
06:03AM 30.3415 -139.1749 70° East 503 579 35,000  Level FlightAware Transoceanic
06:04AM 30.3897 -139.0232 70° East 503 579 35,000  Level FlightAware Transoceanic
06:05AM 30.4377 -138.8713 70° East 503 579 35,000  Level FlightAware Transoceanic
06:06AM 30.4855 -138.7193 70° East 503 579 35,000  Level FlightAware Transoceanic
06:07AM 30.5331 -138.5671 70° East 503 579 35,000  Level FlightAware Transoceanic
06:08AM 30.5805 -138.4148 70° East 503 579 35,000  Level FlightAware Transoceanic
06:09AM 30.6278 -138.2623 70° East 503 579 35,000  Level FlightAware Transoceanic
06:10AM 30.6749 -138.1097 70° East 503 579 35,000  Level FlightAware Transoceanic
06:11AM 30.7218 -137.9569 70° East 503 579 35,000  Level FlightAware Transoceanic
06:12AM 30.7686 -137.8040 70° East 503 579 35,000  Level FlightAware Transoceanic
06:13AM 30.8151 -137.6509 71° East 503 579 35,000  Level FlightAware Transoceanic
06:14AM 30.8615 -137.4977 71° East 503 579 35,000  Level FlightAware Transoceanic
06:15AM 30.9077 -137.3443 71° East 503 579 35,000  Level FlightAware Transoceanic
06:16AM 30.9537 -137.1908 71° East 503 579 35,000  Level FlightAware Transoceanic
06:17AM 30.9996 -137.0372 71° East 503 579 35,000  Level FlightAware Transoceanic
06:18AM 31.0452 -136.8834 71° East 503 579 35,000  Level FlightAware Transoceanic
06:19AM 31.0907 -136.7294 71° East 503 579 35,000  Level FlightAware Transoceanic
06:20AM 31.1360 -136.5753 71° East 503 579 35,000  Level FlightAware Transoceanic
06:21AM 31.1811 -136.4211 71° East 503 579 35,000  Level FlightAware Transoceanic
06:22AM 31.2260 -136.2667 71° East 503 579 35,000  Level FlightAware Transoceanic
06:23AM 31.2707 -136.1121 71° East 503 579 35,000  Level FlightAware Transoceanic
06:24AM 31.3153 -135.9574 71° East 503 579 35,000  Level FlightAware Transoceanic
06:25AM 31.3596 -135.8026 71° East 503 579 35,000  Level FlightAware Transoceanic
06:26AM 31.4038 -135.6476 72° East 503 579 35,000  Level FlightAware Transoceanic
06:27AM 31.4478 -135.4925 72° East 503 579 35,000  Level FlightAware Transoceanic
06:28AM 31.4916 -135.3372 72° East 503 579 35,000  Level FlightAware Transoceanic
06:29AM 31.5352 -135.1818 72° East 503 579 35,000  Level FlightAware Transoceanic
06:30AM 31.5787 -135.0263 72° East 503 579 35,000  Level FlightAware Transoceanic
06:31AM 31.6219 -134.8705 72° East 503 579 35,000  Level FlightAware Transoceanic
06:32AM 31.6650 -134.7147 72° East 503 579 35,000  Level FlightAware Transoceanic
06:33AM 31.7078 -134.5587 72° East 503 579 35,000  Level FlightAware Transoceanic
06:34AM 31.7505 -134.4026 72° East 503 579 35,000  Level FlightAware Transoceanic
06:35AM 31.7930 -134.2463 72° East 503 579 35,000  Level FlightAware Transoceanic
06:36AM 31.8353 -134.0899 72° East 503 579 35,000  Level FlightAware Transoceanic
06:37AM 31.8774 -133.9333 72° East 503 579 35,000  Level FlightAware Transoceanic
06:38AM 31.9193 -133.7766 73° East 503 579 35,000  Level FlightAware Transoceanic
06:39AM 31.9610 -133.6197 73° East 503 579 35,000  Level FlightAware Transoceanic
06:40AM 32.0025 -133.4627 73° East 503 579 35,000  Level FlightAware Transoceanic
06:41AM 32.0438 -133.3056 73° East 503 579 35,000  Level FlightAware Transoceanic
06:42AM 32.0850 -133.1483 73° East 503 579 35,000  Level FlightAware Transoceanic
06:43AM 32.1259 -132.9909 73° East 503 579 35,000  Level FlightAware Transoceanic
06:44AM 32.1667 -132.8333 73° East 503 579 35,000  Level FlightAware Transoceanic
06:44AM 32.1667 -132.8333 73° East 474 545 35,000  Level Oakland Oceanic (ODAPS)
06:45AM 32.2057 -132.6815 73° East 503 579 35,000  Level FlightAware Transoceanic
06:46AM 32.2445 -132.5296 73° East 503 579 35,000  Level FlightAware Transoceanic
06:47AM 32.2832 -132.3775 73° East 503 579 35,000  Level FlightAware Transoceanic
06:48AM 32.3217 -132.2254 73° East 503 579 35,000  Level FlightAware Transoceanic
06:49AM 32.3600 -132.0730 73° East 503 579 35,000  Level FlightAware Transoceanic
06:50AM 32.3937 -131.9382 74° East 474 545 35,000  Level FlightAware Transoceanic
06:51AM 32.4309 -131.7886 74° East 474 545 35,000  Level FlightAware Transoceanic
06:52AM 32.4679 -131.6388 74° East 474 545 35,000  Level FlightAware Transoceanic
06:53AM 32.5048 -131.4889 74° East 474 545 35,000  Level FlightAware Transoceanic
06:54AM 32.5415 -131.3389 74° East 474 545 35,000  Level FlightAware Transoceanic
06:55AM 32.5780 -131.1888 74° East 474 545 35,000  Level FlightAware Transoceanic
06:56AM 32.6143 -131.0386 74° East 474 545 35,000  Level FlightAware Transoceanic
06:57AM 32.6505 -130.8882 74° East 474 545 35,000  Level FlightAware Transoceanic
06:58AM 32.6865 -130.7377 74° East 474 545 35,000  Level FlightAware Transoceanic
06:59AM 32.7222 -130.5871 74° East 474 545 35,000  Level FlightAware Transoceanic
07:00AM 32.7579 -130.4364 74° East 474 545 35,000  Level FlightAware Transoceanic
07:01AM 32.7933 -130.2856 74° East 474 545 35,000  Level FlightAware Transoceanic
07:02AM 32.8285 -130.1346 75° East 474 545 35,000  Level FlightAware Transoceanic
07:03AM 32.8636 -129.9835 75° East 474 545 35,000  Level FlightAware Transoceanic
07:04AM 32.8985 -129.8323 75° East 474 545 35,000  Level FlightAware Transoceanic
07:05AM 32.9332 -129.6810 75° East 474 545 35,000  Level FlightAware Transoceanic
07:06AM 32.9677 -129.5296 75° East 474 545 35,000  Level FlightAware Transoceanic
07:07AM 33.0021 -129.3780 75° East 474 545 35,000  Level FlightAware Transoceanic
07:08AM 33.0362 -129.2263 75° East 474 545 35,000  Level FlightAware Transoceanic
07:09AM 33.0702 -129.0745 75° East 474 545 35,000  Level FlightAware Transoceanic
07:10AM 33.1040 -128.9226 75° East 474 545 35,000  Level FlightAware Transoceanic
07:11AM 33.1376 -128.7706 75° East 474 545 35,000  Level FlightAware Transoceanic
07:12AM 33.1710 -128.6185 75° East 474 545 35,000  Level FlightAware Transoceanic
07:13AM 33.2042 -128.4662 75° East 474 545 35,000  Level FlightAware Transoceanic
07:14AM 33.2373 -128.3138 76° East 474 545 35,000  Level FlightAware Transoceanic
07:15AM 33.2701 -128.1613 76° East 474 545 35,000  Level FlightAware Transoceanic
07:16AM 33.3028 -128.0087 76° East 474 545 35,000  Level FlightAware Transoceanic
07:17AM 33.3353 -127.8560 76° East 474 545 35,000  Level FlightAware Transoceanic
07:18AM 33.3676 -127.7032 76° East 474 545 35,000  Level FlightAware Transoceanic
07:19AM 33.3997 -127.5502 76° East 474 545 35,000  Level FlightAware Transoceanic
07:20AM 33.4316 -127.3972 76° East 474 545 35,000  Level FlightAware Transoceanic
07:21AM 33.4634 -127.2440 76° East 474 545 35,000  Level FlightAware Transoceanic
07:22AM 33.4949 -127.0908 76° East 474 545 35,000  Level FlightAware Transoceanic
07:23AM 33.5263 -126.9374 76° East 474 545 35,000  Level FlightAware Transoceanic
07:24AM 33.5575 -126.7839 76° East 474 545 35,000  Level FlightAware Transoceanic
07:25AM 33.5885 -126.6302 76° East 474 545 35,000  Level FlightAware Transoceanic
07:26AM 33.6193 -126.4765 77° East 474 545 35,000  Level FlightAware Transoceanic
07:27AM 33.6499 -126.3227 77° East 474 545 35,000  Level FlightAware Transoceanic
07:28AM 33.6803 -126.1687 77° East 474 545 35,000  Level FlightAware Transoceanic
07:29AM 33.7105 -126.0147 77° East 474 545 35,000  Level FlightAware Transoceanic
07:30AM 33.7405 -125.8605 77° East 474 545 35,000  Level FlightAware Transoceanic
07:31AM 33.7704 -125.7063 77° East 474 545 35,000  Level FlightAware Transoceanic
07:32AM 33.8000 -125.5519 77° East 474 545 35,000  Level FlightAware Transoceanic
07:33AM 33.8295 -125.3974 77° East 474 545 35,000  Level FlightAware Transoceanic
07:34AM 33.8587 -125.2428 77° East 474 545 35,000  Level FlightAware Transoceanic
07:34AM 33.8961 -124.9567 102° East 479 551 35,000  Level Los Angeles Center
07:35AM 33.8878 -125.0881 77° East 474 545 35,000  Level FlightAware Transoceanic
07:35AM 33.8792 -124.7917 97° East 504 580 35,000  Level Los Angeles Center
07:36AM 33.9167 -124.9333 102° East 474 545 35,000  Level FlightAware Transoceanic
07:36AM 33.8550 -124.6278 100° East 509 586 35,000  Level Los Angeles Center
07:37AM 33.8872 -124.7647 102° East 474 545 35,000  Level FlightAware Transoceanic
07:37AM 33.8272 -124.4628 101° East 506 582 35,000  Level Los Angeles Center
07:38AM 33.8575 -124.5962 102° East 474 545 35,000  Level FlightAware Transoceanic
07:38AM 33.8033 -124.2986 100° East 503 579 35,000  Level Los Angeles Center
07:39AM 33.8276 -124.4278 102° East 474 545 35,000  Level FlightAware Transoceanic
07:39AM 33.8111 -124.1367 87° East 495 570 35,000  Level Los Angeles Center
07:40AM 33.8206 -123.9783 86° East 483 556 35,000  Level Los Angeles Center
07:41AM 33.8272 -123.8167 87° East 484 557 35,000  Level Los Angeles Center
07:42AM 33.8331 -123.6561 87° East 483 556 35,000  Level Los Angeles Center
07:43AM 33.8408 -123.4975 87° East 480 552 35,000  Level Los Angeles Center
07:44AM 33.8497 -123.3394 86° East 478 550 35,000  Level Los Angeles Center
07:45AM 33.8544 -123.1800 88° East 478 550 35,000  Level Los Angeles Center
07:46AM 33.8600 -123.0206 88° East 477 549 35,000  Level Los Angeles Center
07:47AM 33.8658 -122.8619 87° East 478 550 35,000  Level Los Angeles Center
07:48AM 33.8736 -122.7064 87° East 473 544 35,000  Level Los Angeles Center
07:49AM 33.8808 -122.5481 87° East 474 545 35,000  Level Los Angeles Center
07:50AM 33.8836 -122.3881 89° East 477 549 35,000  Level Los Angeles Center
07:51AM 33.8881 -122.2300 88° East 477 549 35,000  Level Los Angeles Center
07:52AM 33.8975 -122.0767 86° East 466 536 35,000  Level Los Angeles Center
07:53AM 33.9006 -121.9186 89° East 474 545 35,000  Level Los Angeles Center
07:55AM 33.9050 -121.7606 88° East 476 548 35,000  Level Los Angeles Center
07:56AM 33.9086 -121.5725 89° East 473 544 35,000  Level Los Angeles Center
07:57AM 33.9111 -121.4147 89° East 475 547 35,000  Level Los Angeles Center
07:58AM 33.9147 -121.2253 89° East 475 547 35,000  Level Los Angeles Center
07:59AM 33.9175 -121.0675 89° East 475 547 35,000  Level Los Angeles Center
08:00AM 33.9211 -120.9114 88° East 473 544 35,000  Level Los Angeles Center
08:01AM 33.9225 -120.7536 89° East 474 545 35,000  Level Los Angeles Center
08:02AM 33.9250 -120.5967 89° East 473 544 35,000  Level Los Angeles Center
08:03AM 33.9264 -120.4411 89° East 472 543 35,000  Level Los Angeles Center
08:04AM 33.9283 -120.2850 89° East 469 540 35,000  Level Los Angeles Center
08:05AM 33.9306 -120.1272 89° East 473 544 35,000  Level Los Angeles Center
08:06AM 33.9317 -119.9814 89° East 463 533 35,000  Level Los Angeles Center
08:07AM 33.9328 -119.8247 89° East 466 536 35,000  Level Los Angeles Center
08:08AM 33.9331 -119.6672 90° East 471 542 35,000  Level Los Angeles Center
08:09AM 33.9347 -119.5111 89° East 469 540 35,000  Level Los Angeles Center
08:10AM 33.9347 -119.3547 90° East 469 540 35,000  Level Los Angeles Center
08:11AM 33.9342 -119.1672 90° East 469 540 35,000  Level Los Angeles Center
08:12AM 33.9347 -119.0111 90° East 467 537 35,000 120 Level Los Angeles Center
08:13AM 33.9347 -118.8556 90° East 467 537 35,300 420 Climbing Los Angeles Center
08:14AM 33.9347 -118.7003 90° East 465 535 35,900 600 Climbing Los Angeles Center
08:15AM 33.9344 -118.5486 90° East 455 524 36,500 480 Climbing Los Angeles Center
08:16AM 33.9356 -118.4261 89° East 453 521 36,900 480 Climbing Los Angeles Center
08:17AM 33.9497 -118.2719 84° East 456 525 37,500 480 Climbing Los Angeles Center
08:18AM 33.9644 -118.1153 83° East 464 534 37,900 240 Climbing Los Angeles Center
08:19AM 33.9800 -117.9597 83° East 466 536 38,000  Climbing Los Angeles Center
08:20AM 33.9942 -117.8072 84° East 460 529 38,000  Level Los Angeles Center
08:21AM 34.0086 -117.6550 83° East 459 528 38,000  Level Los Angeles Center
08:22AM 34.0225 -117.5064 84° East 451 519 38,000  Level Los Angeles Center
08:23AM 34.0361 -117.3578 84° East 449 517 38,000  Level Los Angeles Center
08:24AM 34.0489 -117.2086 84° East 449 517 38,000  Level Los Angeles Center
08:25AM 34.0642 -117.0542 83° East 450 518 38,000  Level Los Angeles Center
08:26AM 34.0764 -116.9028 84° East 453 521 38,000  Level Los Angeles Center
08:27AM 34.0908 -116.7503 83° East 457 526 38,000  Level Los Angeles Center
08:28AM 34.1033 -116.5958 84° East 460 529 38,000  Level Los Angeles Center
08:29AM 34.1169 -116.4419 84° East 459 528 38,000  Level Los Angeles Center
08:30AM 34.1292 -116.2842 85° East 463 533 38,000  Level Los Angeles Center
08:31AM 34.1414 -116.1303 84° East 463 533 38,000  Level Los Angeles Center
08:32AM 34.1539 -115.9769 84° East 462 532 38,000  Level Los Angeles Center
08:33AM 34.1661 -115.8250 84° East 459 528 38,000  Level Los Angeles Center
08:34AM 34.1783 -115.6739 84° East 454 522 38,000  Level Los Angeles Center
08:35AM 34.1894 -115.5175 85° East 461 531 38,000  Level Los Angeles Center
08:36AM 34.2008 -115.3639 85° East 460 529 38,000  Level Los Angeles Center
08:37AM 34.2128 -115.2111 85° East 458 527 38,000  Level Los Angeles Center
08:38AM 34.2253 -115.0294 85° East 454 522 38,000  Level Los Angeles Center
08:39AM 34.2364 -114.8778 85° East 453 521 38,000  Level Los Angeles Center
08:40AM 34.2475 -114.7281 85° East 451 519 38,000  Level Los Angeles Center
08:41AM 34.2578 -114.5778 85° East 450 518 38,000  Level Los Angeles Center
08:42AM 34.2675 -114.4286 85° East 447 514 38,000  Level Los Angeles Center
08:43AM 34.2778 -114.2786 85° East 448 516 38,000  Level Los Angeles Center
08:43AM 34.2828 -114.2367 82° East 448 516 38,000  Level Albuquerque Center
08:44AM 34.2917 -114.0883 86° East 445 512 38,000  Level Albuquerque Center
08:45AM 34.3011 -113.9386 86° East 446 513 38,000  Level Albuquerque Center
08:46AM 34.3133 -113.7569 85° East 451 519 38,000  Level Albuquerque Center
08:47AM 34.3217 -113.6347 85° East 453 521 38,000  Level Albuquerque Center
08:48AM 34.3286 -113.4733 87° East 454 522 38,000  Level Albuquerque Center
08:49AM 34.3375 -113.3200 86° East 456 525 38,000  Level Albuquerque Center
08:50AM 34.3472 -113.1642 86° East 461 531 38,000  Level Albuquerque Center
08:51AM 34.3553 -113.0106 86° East 460 529 38,000  Level Albuquerque Center
08:52AM 34.3642 -112.8561 86° East 460 529 38,000  Level Albuquerque Center
08:53AM 34.3711 -112.7036 87° East 457 526 38,000  Level Albuquerque Center
08:54AM 34.3803 -112.5478 86° East 461 531 38,000  Level Albuquerque Center
08:55AM 34.3886 -112.3931 86° East 461 531 38,000  Level Albuquerque Center
08:56AM 34.3953 -112.2383 87° East 461 531 38,000  Level Albuquerque Center
08:57AM 34.4031 -112.0825 86° East 460 529 38,000  Level Albuquerque Center
08:58AM 34.4114 -111.8961 87° East 461 531 38,000  Level Albuquerque Center
08:59AM 34.4186 -111.7403 87° East 461 531 38,000  Level Albuquerque Center
09:00AM 34.4261 -111.5842 87° East 461 531 38,000  Level Albuquerque Center
09:01AM 34.4322 -111.4289 87° East 460 529 38,000  Level Albuquerque Center
09:02AM 34.4392 -111.2714 87° East 465 535 38,000  Level Albuquerque Center
09:04AM 34.4450 -111.1150 87° East 465 535 38,000  Level Albuquerque Center
09:05AM 34.4525 -110.9592 87° East 464 534 38,000  Level Albuquerque Center
09:06AM 34.4575 -110.8017 88° East 466 536 38,000 180 Level Albuquerque Center
09:07AM 34.4650 -110.6456 87° East 466 536 38,400 360 Climbing Albuquerque Center
09:08AM 34.4714 -110.4903 87° East 463 533 38,800 240 Climbing Albuquerque Center
09:09AM 34.4756 -110.3347 88° East 463 533 39,000 60 Climbing Albuquerque Center
09:10AM 34.4800 -110.1833 88° East 468 539 39,000  Level Albuquerque Center
09:11AM 34.4853 -110.0094 88° East 465 535 39,000  Level Albuquerque Center
09:12AM 34.4903 -109.8597 88° East 465 535 39,000  Level Albuquerque Center
09:13AM 34.4947 -109.7097 88° East 466 536 39,000  Level Albuquerque Center
09:14AM 34.4994 -109.5325 88° East 469 540 39,000  Level Albuquerque Center
09:15AM 34.5036 -109.3825 88° East 468 539 39,000  Level Albuquerque Center
09:16AM 34.5078 -109.2294 88° East 472 543 39,000  Level Albuquerque Center
09:17AM 34.5122 -109.0517 88° East 474 545 39,000  Level Albuquerque Center
09:18AM 34.5153 -108.9022 89° East 469 540 39,000  Level Albuquerque Center
09:19AM 34.5189 -108.7519 88° East 468 539 39,000  Level Albuquerque Center
09:20AM 34.5231 -108.5781 88° East 466 536 39,000  Level Albuquerque Center
09:21AM 34.5258 -108.4303 89° East 469 540 39,000  Level Albuquerque Center
09:22AM 34.5286 -108.2722 89° East 471 542 39,000  Level Albuquerque Center
09:23AM 34.5308 -108.1128 89° East 472 543 39,000  Level Albuquerque Center
09:24AM 34.5322 -107.9550 89° East 471 542 39,000  Level Albuquerque Center
09:25AM 34.5353 -107.7958 89° East 473 544 39,000  Level Albuquerque Center
09:26AM 34.5367 -107.6381 89° East 471 542 39,000  Level Albuquerque Center
09:27AM 34.5378 -107.4778 89° East 474 545 39,000  Level Albuquerque Center
09:28AM 34.5400 -107.2878 89° East 474 545 39,000  Level Albuquerque Center
09:29AM 34.5414 -107.1300 89° East 473 544 39,000  Level Albuquerque Center
09:30AM 34.5417 -106.9706 90° East 475 547 39,000  Level Albuquerque Center
09:31AM 34.5417 -106.8114 90° East 476 548 39,000  Level Albuquerque Center
09:32AM 34.5414 -106.6525 90° East 476 548 39,000  Level Albuquerque Center
09:33AM 34.5428 -106.4947 89° East 473 544 39,000  Level Albuquerque Center
09:34AM 34.5422 -106.3361 90° East 473 544 39,000  Level Albuquerque Center
09:35AM 34.5433 -106.1658 89° East 474 545 39,000  Level Albuquerque Center
09:36AM 34.5414 -106.0039 91° East 476 548 39,000  Level Albuquerque Center
09:37AM 34.5414 -105.8422 90° East 476 548 39,000  Level Albuquerque Center
09:38AM 34.5406 -105.6803 90° East 477 549 39,000  Level Albuquerque Center
09:39AM 34.5403 -105.5175 90° East 479 551 39,000  Level Albuquerque Center
09:40AM 34.5378 -105.3542 91° East 480 552 39,000  Level Albuquerque Center
09:41AM 34.5369 -105.1914 90° East 480 552 39,000  Level Albuquerque Center
09:42AM 34.5369 -105.0275 90° East 482 555 39,000  Level Albuquerque Center
09:43AM 34.5347 -104.8364 91° East 482 555 39,000  Level Albuquerque Center
09:44AM 34.5325 -104.6722 91° East 484 557 39,000  Level Albuquerque Center
09:45AM 34.5308 -104.5086 91° East 484 557 39,000  Level Albuquerque Center
09:46AM 34.5286 -104.3428 91° East 487 560 39,000  Level Albuquerque Center
09:47AM 34.5261 -104.1794 91° East 486 559 39,000  Level Albuquerque Center
09:48AM 34.5225 -104.0147 91° East 486 559 39,000  Level Albuquerque Center
09:49AM 34.5194 -103.8508 91° East 485 558 39,000  Level Albuquerque Center
09:50AM 34.5164 -103.6864 91° East 486 559 39,000  Level Albuquerque Center
09:51AM 34.5136 -103.5214 91° East 486 559 39,000  Level Albuquerque Center
09:52AM 34.5075 -103.3564 93° East 487 560 39,000  Level Albuquerque Center
09:53AM 34.4919 -103.1911 96° East 491 565 39,000  Level Albuquerque Center
09:54AM 34.4783 -103.0253 96° East 493 567 39,000  Level Albuquerque Center
09:55AM 34.4658 -102.8553 95° East 495 570 39,000  Level Albuquerque Center
09:56AM 34.4525 -102.6906 96° East 495 570 39,000  Level Albuquerque Center
09:57AM 34.4375 -102.5250 96° East 497 572 39,000  Level Albuquerque Center
09:58AM 34.4206 -102.3256 96° East 498 573 39,000  Level Albuquerque Center
09:59AM 34.4058 -102.1600 96° East 499 574 39,000  Level Albuquerque Center
10:00AM 34.3897 -101.9947 97° East 498 573 39,000  Level Albuquerque Center
10:01AM 34.3753 -101.8272 96° East 500 575 39,000  Level Albuquerque Center
10:02AM 34.3600 -101.6594 96° East 504 580 39,000  Level Albuquerque Center
10:03AM 34.3442 -101.4931 97° East 503 579 39,000  Level Albuquerque Center
10:04AM 34.3281 -101.3264 97° East 501 577 39,000  Level Albuquerque Center
10:05AM 34.3114 -101.1608 97° East 500 575 39,000  Level Albuquerque Center
10:06AM 34.2803 -100.9656 101° East 500 575 39,000  Level Albuquerque Center
10:08AM 34.2464 -100.8028 104° East 492 566 39,000  Level Fort Worth Center
10:09AM 34.2108 -100.6431 105° East 492 566 39,000  Level Fort Worth Center
10:10AM 34.1731 -100.4836 106° East 492 566 39,000  Level Fort Worth Center
10:11AM 34.1392 -100.3394 106° East 492 566 39,000 -600 Level Fort Worth Center
10:12AM 34.1031 -100.1800 105° East 492 566 37,800 -1,200 Descending Fort Worth Center
10:13AM 34.0669 -100.0158 105° East 499 574 36,700 -1,020 Descending Fort Worth Center
10:14AM 34.0283 -99.8569 106° East 499 574 35,800 -900 Descending Fort Worth Center
10:15AM 33.9939 -99.6956 104° East 499 574 35,000 -420 Descending Fort Worth Center
10:16AM 33.9569 -99.5394 106° East 493 567 35,000 1,980 Level Fort Worth Center
10:17AM 33.9139 -99.3681 107° East 488 562 39,000  Climbing Fort Worth Center
10:18AM 33.8786 -99.2197 106° East 489 563 35,000 -2,280 Descending Fort Worth Center
10:19AM 33.8411 -99.0639 106° East 489 563 34,500 -960 Descending Fort Worth Center
10:20AM 33.7994 -98.8933 106° East 489 563 33,100 -1,620 Descending Fort Worth Center
10:21AM 33.7508 -98.7475 112° Southeast 477 549 31,300 -2,400 Descending Fort Worth Center
10:22AM 33.7044 -98.6069 112° Southeast 463 533 28,400 -2,580 Descending Fort Worth Center
10:23AM 33.6636 -98.4792 111° Southeast 453 521 26,200 -2,400 Descending Fort Worth Center
10:24AM 33.6147 -98.3289 111° Southeast 448 516 23,700 -2,340 Descending Fort Worth Center
10:25AM 33.5719 -98.1964 111° Southeast 432 497 21,600 -2,100 Descending Fort Worth Center
10:26AM 33.5247 -98.0664 114° Southeast 432 497 19,500 -1,980 Descending Fort Worth Center
10:27AM 33.4875 -97.9514 111° Southeast 419 482 17,700 -1,860 Descending Fort Worth Center
10:28AM 33.4400 -97.8167 113° Southeast 409 471 15,800 -1,860 Descending Fort Worth Center
10:29AM 33.4050 -97.7069 111° Southeast 395 455 14,000 -1,500 Descending Fort Worth Center
10:30AM 33.3550 -97.5850 116° Southeast 375 432 12,900 -1,500 Descending Fort Worth Center
10:31AM 33.2781 -97.5203 145° Southeast 355 409 11,000 -900 Descending Fort Worth Center
10:32AM 33.2217 -97.4556 136° Southeast 320 368 11,100  Climbing Fort Worth Center
10:33AM 33.1547 -97.3761 135° Southeast 315 362 11,000 -60 Descending Fort Worth Center
10:34AM 33.0942 -97.3044 135° Southeast 315 362 11,000  Level Fort Worth Center
10:35AM 33.0378 -97.2400 136° Southeast 315 362 11,000  Level Fort Worth Center
10:36AM 32.9750 -97.1758 139° Southeast 287 330 11,100 -60 Climbing Fort Worth Center
10:37AM 32.9061 -97.1683 175° South 251 289 10,900 -840 Descending Fort Worth Center
10:38AM 32.8394 -97.1711 182° South 244 281 9,500 -1,260 Descending Fort Worth Center
10:39AM 32.7706 -97.1714 180° South 244 281 8,400 -780 Descending Fort Worth Center
10:40AM 32.6994 -97.1689 178° South 250 288 8,000 -300 Descending Fort Worth Center
10:41AM 32.6347 -97.1692 180° South 250 288 7,900 -660 Descending Fort Worth Center
10:43AM 32.5500 -97.0833 139° Southeast 218 251 6,100 -720 Descending Dallas / Fort Worth TRACON
10:44AM 32.5667 -97.0333 68° East 181 208 5,800 -600 Descending Dallas / Fort Worth TRACON
10:45AM 32.6167 -97.0167 16° North 205 236 5,000 -660 Descending Dallas / Fort Worth TRACON
10:46AM 32.6833 -97.0167 360° North 208 239 4,500 -480 Descending Dallas / Fort Worth TRACON